Hauptseite
METAR-TAF:

METAR-TAF

Flughäfen :

Wattisham, England

Breite: 52-07N, Länge: 000-58E, Höhe: 87 m

Beobachtung

Neuester Wetterbericht von vor 29 Minuten, um 07:50 UTC
Wind 8 kt aus Süd
Temperatur 7°C
Luftfeuchtigkeit 93%
Luftdruck 1004 hPa
Sichtweite 10 km oder mehr
keine Wolken unter 1500 m und keine Kumulonimbus oder Gewitterwolken

METAR: EGUW 190750Z 19008KT CAVOK 07/06 Q1004 BLU TEMPO 5000 SHRA SCT020 WHT

Zeit: 08:19 (08:19 UTC)

Prognose

Neuester Wetterbericht von vor 21 Stunden und 32 Minuten, um 10:47 UTC
Gültige Prognose vom 18 um 12 UTC bis 18 um 18 UTC
Wind 20 kt aus Süd, Böen bis zu 30 kt
Sichtweite 10 km oder mehr
Leicht bewölkt in der Höhe von 1500 ft
Zeitweise
vom 18 um 12 UTC bis 18 um 14 UTC
Durchbrochene Bewölkung in der Höhe von 1000 ft

TAF: EGUW 181047Z 1812/1818 17020G30KT 9999 FEW015 TEMPO 1812/1814 BKN010

Wetterbeobachtungen und Prognosen von mehr als 4000 Flughäfen (METAR und TAF Bericht).

Die verfügbaren Stationen werden durch gelbe und rote Markierungen auf der Karte dargestellt.

Führen Sie die Maus auf sie, um den Namen der Station zu sehen.

Darauf klicken, um die Beobachtung von Wetterbeobachtungen und Prognosen zu sehen.

Um die Karte zu ändern : klicken Sie auf den grünen Tasten mit einem schwarzen Kreuz Zum Vergrößern, auf den grünen Button mit einem Gedankenstrich zu verkleinern, oder auf die grünen Pfeile für benachbarte Karten.


METAR-TAF: